Time;durP1;ratioP1;P1;durP2;ratioP2;P2;SDS_P1;SDS_P2;PMS_P1;PMS_P2;Temp;Humidity;BMP_temperature;BMP_pressure;BME280_temperature;BME280_humidity;BME280_pressure;Samples;Min_cycle;Max_cycle;Signal;HPM_P1;HPM_P2
2022/03/07 00:01:27;;;;;;;11.37;7.67;;;;;;;1.10;100.00;100208.91;5028288;28;20204;-76
2022/03/07 00:03:54;;;;;;;9.20;6.27;;;;;;;1.07;100.00;100203.59;5015835;28;20216;-77
2022/03/07 00:06:22;;;;;;;11.20;6.20;;;;;;;1.15;100.00;100207.47;5024842;28;20199;-76
2022/03/07 00:08:49;;;;;;;10.97;7.30;;;;;;;0.95;100.00;100177.44;5014460;28;20203;-76
2022/03/07 00:11:17;;;;;;;8.03;5.07;;;;;;;1.04;100.00;100212.75;5026140;28;20216;-76
2022/03/07 00:13:44;;;;;;;4.70;4.07;;;;;;;1.09;100.00;100212.25;5033239;28;20691;-77
2022/03/07 00:16:11;;;;;;;9.00;5.73;;;;;;;1.19;100.00;100213.59;5032004;28;20279;-76
2022/03/07 00:18:38;;;;;;;8.30;5.63;;;;;;;0.94;100.00;100171.44;5034094;28;20200;-75
2022/03/07 00:21:06;;;;;;;13.93;8.03;;;;;;;1.34;100.00;100207.66;5030474;28;20205;-78
2022/03/07 00:23:35;;;;;;;5.37;4.80;;;;;;;1.22;100.00;100199.31;5020256;28;20231;-76
2022/03/07 00:26:02;;;;;;;8.83;4.93;;;;;;;1.20;100.00;100200.94;5033671;28;20196;-77
2022/03/07 00:28:28;;;;;;;5.80;4.13;;;;;;;1.09;100.00;100191.81;5024317;28;20629;-76
2022/03/07 00:30:55;;;;;;;7.47;6.00;;;;;;;0.90;100.00;100160.97;5028373;28;20189;-76
2022/03/07 00:33:22;;;;;;;9.60;6.23;;;;;;;1.14;100.00;100192.91;5013611;28;20758;-76
2022/03/07 00:35:49;;;;;;;8.53;5.80;;;;;;;1.13;100.00;100193.75;5014421;28;20608;-76
2022/03/07 00:38:16;;;;;;;9.17;6.40;;;;;;;1.12;100.00;100191.97;5012886;28;20196;-76
2022/03/07 00:40:44;;;;;;;9.90;6.50;;;;;;;1.07;100.00;100144.88;5013763;28;20589;-76
2022/03/07 00:43:11;;;;;;;7.90;5.80;;;;;;;1.16;100.00;100182.81;5031659;28;20631;-76
2022/03/07 00:45:38;;;;;;;9.10;6.27;;;;;;;1.22;100.00;100180.56;5020457;28;20217;-76
2022/03/07 00:48:05;;;;;;;6.43;4.83;;;;;;;1.27;100.00;100177.47;5020680;28;20212;-76
2022/03/07 00:50:32;;;;;;;5.83;4.77;;;;;;;1.23;100.00;100167.00;5032557;28;20200;-76
2022/03/07 00:52:59;;;;;;;4.43;3.93;;;;;;;1.00;100.00;100155.56;5032760;28;20192;-75
2022/03/07 00:55:26;;;;;;;3.70;3.40;;;;;;;1.05;100.00;100169.47;5020359;28;20659;-77
2022/03/07 00:57:54;;;;;;;6.17;5.10;;;;;;;1.12;100.00;100165.56;5030085;28;20204;-77
2022/03/07 01:00:21;;;;;;;15.20;6.07;;;;;;;1.12;100.00;100158.78;5029176;28;20189;-76
2022/03/07 01:02:48;;;;;;;9.50;5.20;;;;;;;1.08;100.00;100161.97;5013092;28;20200;-75
2022/03/07 01:05:15;;;;;;;9.40;6.37;;;;;;;1.11;100.00;100158.69;5014107;28;20611;-78
2022/03/07 01:07:42;;;;;;;4.93;4.43;;;;;;;1.08;100.00;100154.31;5022447;28;20204;-77
2022/03/07 01:10:09;;;;;;;4.17;3.80;;;;;;;1.18;100.00;100176.97;5028796;28;20200;-76
2022/03/07 01:12:36;;;;;;;9.17;5.97;;;;;;;1.18;100.00;100176.97;5020064;28;20199;-76
2022/03/07 01:15:05;;;;;;;6.37;5.63;;;;;;;1.23;100.00;100175.56;5032736;28;20197;-75
2022/03/07 01:17:32;;;;;;;8.33;6.23;;;;;;;1.20;100.00;100172.84;5024459;28;20665;-76
2022/03/07 01:19:59;;;;;;;7.57;6.70;;;;;;;1.17;100.00;100175.25;5012761;28;20254;-76
2022/03/07 01:22:26;;;;;;;2.03;1.93;;;;;;;1.20;100.00;100167.75;5012690;28;20675;-78
2022/03/07 01:24:53;;;;;;;9.10;6.93;;;;;;;1.12;100.00;100160.47;5016232;28;20235;-76
2022/03/07 01:27:20;;;;;;;8.37;4.60;;;;;;;1.12;100.00;100161.34;5018987;28;20189;-75
2022/03/07 01:29:47;;;;;;;7.30;5.20;;;;;;;1.06;100.00;100168.69;5012767;28;20201;-76
2022/03/07 01:32:15;;;;;;;12.23;7.57;;;;;;;1.20;100.00;100151.53;5028717;28;20192;-76
2022/03/07 01:34:43;;;;;;;4.83;4.40;;;;;;;1.20;100.00;100174.50;5029289;28;20201;-76
2022/03/07 01:37:10;;;;;;;7.33;6.47;;;;;;;1.09;100.00;100176.50;5012111;28;20216;-75
2022/03/07 01:39:36;;;;;;;10.47;7.43;;;;;;;0.98;100.00;100139.31;5023427;28;20200;-76
2022/03/07 01:42:04;;;;;;;5.03;4.50;;;;;;;1.19;100.00;100167.66;5032057;28;20253;-76
2022/03/07 01:44:32;;;;;;;5.07;4.57;;;;;;;1.07;100.00;100150.00;5028465;28;20291;-75
2022/03/07 01:46:59;;;;;;;5.90;5.30;;;;;;;1.05;100.00;100154.16;5015378;28;20603;-77
2022/03/07 01:49:28;;;;;;;11.20;6.90;;;;;;;1.00;100.00;100141.13;5012397;28;20203;-76
2022/03/07 01:51:56;;;;;;;12.37;6.67;;;;;;;1.21;100.00;100177.16;5012675;28;20227;-77
2022/03/07 01:54:23;;;;;;;8.90;5.70;;;;;;;0.93;100.00;100135.63;5012382;28;20224;-76
2022/03/07 01:56:52;;;;;;;10.77;6.57;;;;;;;1.22;100.00;100194.22;5012299;28;20672;-76
2022/03/07 01:59:21;;;;;;;10.13;7.57;;;;;;;1.17;100.00;100190.56;5012102;28;20672;-76
2022/03/07 02:01:48;;;;;;;5.67;5.07;;;;;;;1.08;100.00;100179.84;5012151;28;20642;-77
2022/03/07 02:04:15;;;;;;;14.13;7.80;;;;;;;1.14;100.00;100185.25;5013699;28;20227;-77
2022/03/07 02:06:46;;;;;;;13.40;7.30;;;;;;;1.16;100.00;100183.69;5026268;28;20189;-75
2022/03/07 02:09:13;;;;;;;8.60;5.00;;;;;;;1.13;100.00;100185.19;5012420;28;20255;-76
2022/03/07 02:11:40;;;;;;;8.27;5.83;;;;;;;1.22;100.00;100191.66;5028894;28;20196;-76
2022/03/07 02:14:14;;;;;;;5.97;5.07;;;;;;;1.15;100.00;100191.25;5030298;28;20203;-76
2022/03/07 02:16:41;;;;;;;7.93;6.27;;;;;;;1.08;100.00;100195.16;5030935;28;20199;-75
2022/03/07 02:19:08;;;;;;;10.13;6.20;;;;;;;1.13;100.00;100198.84;5031262;28;20200;-76
2022/03/07 02:21:35;;;;;;;11.37;6.87;;;;;;;1.10;100.00;100187.59;5031644;28;20203;-75
2022/03/07 02:24:05;;;;;;;12.00;8.27;;;;;;;1.22;100.00;100204.44;5028009;28;20235;-76
2022/03/07 02:26:31;;;;;;;7.43;5.43;;;;;;;1.24;100.00;100197.75;5023472;28;20188;-75
2022/03/07 02:28:58;;;;;;;12.00;8.33;;;;;;;1.07;100.00;100172.97;5019982;28;20201;-75
2022/03/07 02:31:25;;;;;;;10.80;7.30;;;;;;;1.27;100.00;100191.91;5022632;28;20682;-75
2022/03/07 02:33:52;;;;;;;9.87;6.50;;;;;;;1.35;100.00;100219.63;5031909;28;20204;-75
2022/03/07 02:36:19;;;;;;;13.47;9.23;;;;;;;1.43;100.00;100215.78;5020994;28;20197;-76
2022/03/07 02:38:46;;;;;;;6.43;4.57;;;;;;;1.42;100.00;100213.16;5011749;28;20734;-75
2022/03/07 02:41:14;;;;;;;12.03;6.23;;;;;;;1.32;100.00;100196.47;5020365;28;20215;-76
2022/03/07 02:43:41;;;;;;;9.13;5.30;;;;;;;1.16;100.00;100191.34;5018958;28;20196;-76
2022/03/07 02:46:08;;;;;;;10.27;6.87;;;;;;;0.74;100.00;100121.00;5016128;28;20215;-75
2022/03/07 02:48:34;;;;;;;5.60;4.47;;;;;;;1.21;100.00;100212.03;5030810;28;20772;-76
2022/03/07 02:51:01;;;;;;;8.43;6.43;;;;;;;1.13;100.00;100193.75;5014015;28;20193;-76
2022/03/07 02:53:28;;;;;;;13.33;9.03;;;;;;;1.37;100.00;100201.81;5011957;28;20205;-76
2022/03/07 02:55:55;;;;;;;9.83;5.30;;;;;;;1.32;100.00;100216.88;5011650;28;20194;-75
2022/03/07 02:58:23;;;;;;;9.37;5.50;;;;;;;1.21;100.00;100178.84;5011515;28;20232;-75
2022/03/07 03:00:50;;;;;;;8.90;5.43;;;;;;;1.29;100.00;100211.63;5023994;28;20192;-75
2022/03/07 03:03:17;;;;;;;10.43;6.27;;;;;;;0.97;100.00;100160.50;5031337;28;20201;-75
2022/03/07 03:05:44;;;;;;;12.77;7.93;;;;;;;1.20;100.00;100216.25;5030907;28;20226;-75
2022/03/07 03:08:11;;;;;;;17.30;10.17;;;;;;;1.06;100.00;100200.97;5018558;28;20197;-77
2022/03/07 03:10:38;;;;;;;14.70;9.27;;;;;;;1.20;100.00;100206.03;5030653;28;20188;-75
2022/03/07 03:13:04;;;;;;;15.40;10.50;;;;;;;1.13;100.00;100206.50;5031126;28;20200;-76
2022/03/07 03:15:32;;;;;;;17.57;9.03;;;;;;;1.17;100.00;100205.88;5030890;28;20671;-75
2022/03/07 03:17:59;;;;;;;18.87;9.70;;;;;;;0.96;100.00;100181.75;5016481;28;20193;-76
2022/03/07 03:20:26;;;;;;;17.37;8.70;;;;;;;1.18;100.00;100209.31;5028530;28;20192;-75
2022/03/07 03:22:53;;;;;;;24.37;12.83;;;;;;;1.20;100.00;100216.25;5030651;28;20196;-76
2022/03/07 03:25:20;;;;;;;20.03;10.43;;;;;;;1.09;100.00;100208.81;5030726;28;20797;-75
2022/03/07 03:27:46;;;;;;;9.77;7.47;;;;;;;1.08;100.00;100222.34;5028704;28;20203;-75
2022/03/07 03:30:14;;;;;;;19.20;11.63;;;;;;;1.06;100.00;100217.19;5014676;28;20189;-75
2022/03/07 03:32:43;;;;;;;15.30;7.67;;;;;;;0.78;100.00;100176.53;5034943;28;20192;-75
2022/03/07 03:35:10;;;;;;;10.00;5.67;;;;;;;0.93;100.00;100224.94;5032454;28;20204;-76
2022/03/07 03:37:37;;;;;;;10.23;6.47;;;;;;;0.89;100.00;100223.03;5034096;28;20211;-75
2022/03/07 03:40:06;;;;;;;21.90;11.97;;;;;;;0.73;100.00;100190.69;5034354;28;20200;-76
2022/03/07 03:42:33;;;;;;;7.43;5.23;;;;;;;0.85;100.00;100227.09;5032946;28;20219;-75
2022/03/07 03:45:00;;;;;;;17.50;9.40;;;;;;;0.93;100.00;100230.94;5032710;28;20228;-75
2022/03/07 03:47:26;;;;;;;17.57;8.97;;;;;;;0.97;100.00;100237.09;5029770;28;20227;-75
2022/03/07 03:49:55;;;;;;;12.00;7.73;;;;;;;0.88;100.00;100224.72;5033560;28;20200;-75
2022/03/07 03:52:22;;;;;;;13.37;8.37;;;;;;;0.78;100.00;100213.91;5034524;28;20229;-75
2022/03/07 03:54:49;;;;;;;11.33;6.83;;;;;;;0.86;100.00;100231.38;5021618;28;20197;-77
2022/03/07 03:57:16;;;;;;;11.03;8.53;;;;;;;0.77;100.00;100230.00;5017827;28;20196;-75
2022/03/07 03:59:42;;;;;;;14.43;7.93;;;;;;;0.83;100.00;100236.31;5031595;28;20710;-75
2022/03/07 04:02:09;;;;;;;15.20;10.53;;;;;;;0.90;100.00;100224.78;5023873;28;20274;-76
2022/03/07 04:04:36;;;;;;;12.07;7.73;;;;;;;0.61;100.00;100205.31;5015463;28;20224;-76
2022/03/07 04:07:04;;;;;;;17.40;10.87;;;;;;;0.84;100.00;100227.00;5021343;28;20192;-76
2022/03/07 04:09:31;;;;;;;15.80;9.27;;;;;;;0.80;100.00;100228.50;5033621;28;20204;-76
2022/03/07 04:11:58;;;;;;;11.50;7.47;;;;;;;0.58;100.00;100184.72;5033583;28;20671;-75
2022/03/07 04:14:25;;;;;;;9.37;6.17;;;;;;;0.60;100.00;100190.81;5033373;28;20192;-75
2022/03/07 04:16:52;;;;;;;18.50;10.80;;;;;;;0.82;100.00;100228.59;5033731;28;20188;-76
2022/03/07 04:19:18;;;;;;;7.30;6.47;;;;;;;0.35;100.00;100157.97;5031583;28;20192;-75
2022/03/07 04:21:46;;;;;;;4.27;3.97;;;;;;;0.79;100.00;100218.19;5028752;28;20189;-75
2022/03/07 04:24:14;;;;;;;13.83;8.87;;;;;;;0.82;100.00;100211.59;5033086;28;20266;-75
2022/03/07 04:26:42;;;;;;;7.33;5.00;;;;;;;0.48;100.00;100178.25;5020303;28;20192;-75
2022/03/07 04:29:10;;;;;;;3.93;3.63;;;;;;;0.64;100.00;100217.38;5013742;28;20672;-76
2022/03/07 04:31:38;;;;;;;13.13;8.93;;;;;;;0.40;100.00;100148.88;5027319;28;20637;-75
2022/03/07 04:34:06;;;;;;;12.37;7.00;;;;;;;0.72;100.00;100211.88;5016291;28;20196;-75
2022/03/07 04:36:35;;;;;;;14.27;6.93;;;;;;;0.75;100.00;100208.66;5013505;28;20259;-75
2022/03/07 04:39:01;;;;;;;13.53;8.73;;;;;;;0.66;100.00;100175.84;5013576;28;20211;-75
2022/03/07 04:41:30;;;;;;;15.77;11.27;;;;;;;0.97;100.00;100206.44;5013105;28;20208;-75
2022/03/07 04:43:57;;;;;;;16.40;9.23;;;;;;;0.88;100.00;100211.06;5025267;28;20207;-75
2022/03/07 04:46:24;;;;;;;17.33;9.17;;;;;;;0.85;100.00;100209.25;5013402;28;20240;-74
2022/03/07 04:48:51;;;;;;;15.93;7.97;;;;;;;0.47;100.00;100148.41;5015760;28;20687;-78
2022/03/07 04:51:17;;;;;;;20.13;8.73;;;;;;;0.60;100.00;100208.66;5031433;28;20192;-76
2022/03/07 04:53:45;;;;;;;19.97;8.70;;;;;;;0.44;100.00;100165.22;5031998;28;20623;-76
2022/03/07 04:56:12;;;;;;;18.90;9.63;;;;;;;0.32;100.00;100132.25;5022480;28;20193;-75
2022/03/07 04:58:40;;;;;;;25.97;11.47;;;;;;;0.84;100.00;100210.03;5022260;28;20648;-75
2022/03/07 05:01:07;;;;;;;13.43;10.20;;;;;;;0.88;100.00;100208.50;5023237;28;20196;-75
2022/03/07 05:03:34;;;;;;;8.47;6.77;;;;;;;0.90;100.00;100209.47;5014116;28;20201;-75
2022/03/07 05:06:01;;;;;;;7.00;5.53;;;;;;;0.79;100.00;100208.00;5013599;28;20229;-75
2022/03/07 05:08:28;;;;;;;12.67;8.93;;;;;;;0.95;100.00;100208.94;5022524;28;20196;-75
2022/03/07 05:10:54;;;;;;;12.23;6.50;;;;;;;0.78;100.00;100183.28;5029811;28;20697;-75
2022/03/07 05:13:21;;;;;;;8.63;6.63;;;;;;;0.93;100.00;100210.50;5028838;28;20573;-75
2022/03/07 05:15:49;;;;;;;14.00;8.10;;;;;;;1.11;100.00;100215.75;5028586;28;20192;-75
2022/03/07 05:18:17;;;;;;;20.73;8.07;;;;;;;0.96;100.00;100207.28;5027223;28;20196;-75
2022/03/07 05:20:44;;;;;;;4.50;4.00;;;;;;;0.52;100.00;100142.69;5027368;28;20196;-75
2022/03/07 05:23:11;;;;;;;11.53;7.13;;;;;;;1.02;100.00;100211.81;5029885;28;20188;-75
2022/03/07 05:25:38;;;;;;;18.87;9.83;;;;;;;1.20;100.00;100211.16;5028459;28;20224;-75
2022/03/07 05:28:05;;;;;;;11.63;8.07;;;;;;;1.02;100.00;100188.84;5029147;28;20584;-76
2022/03/07 05:30:32;;;;;;;14.97;8.97;;;;;;;1.16;100.00;100205.78;5020616;28;20631;-77
2022/03/07 05:33:00;;;;;;;12.67;7.47;;;;;;;1.31;100.00;100202.38;5031730;28;20197;-76
2022/03/07 05:35:28;;;;;;;7.07;5.40;;;;;;;1.21;100.00;100202.69;5029808;28;20196;-75
2022/03/07 05:37:55;;;;;;;17.13;9.33;;;;;;;1.43;100.00;100203.00;5027981;28;20223;-76
2022/03/07 05:40:22;;;;;;;14.13;8.63;;;;;;;1.53;100.00;100200.97;5031810;28;20208;-77
2022/03/07 05:42:49;;;;;;;12.87;8.40;;;;;;;1.27;100.00;100169.81;5030216;28;20195;-76
2022/03/07 05:45:16;;;;;;;15.77;9.03;;;;;;;1.43;100.00;100205.56;5016342;28;20212;-77
2022/03/07 05:47:43;;;;;;;13.27;8.93;;;;;;;1.64;100.00;100217.72;5030456;28;20278;-79
2022/03/07 05:50:13;;;;;;;16.90;9.33;;;;;;;1.62;100.00;100193.75;5030396;28;20192;-79
2022/03/07 05:52:40;;;;;;;13.60;9.33;;;;;;;1.86;100.00;100215.47;5028941;28;20671;-78
2022/03/07 05:55:08;;;;;;;12.00;8.83;;;;;;;1.34;100.00;100163.34;5029496;28;20196;-77
2022/03/07 05:57:35;;;;;;;9.63;7.47;;;;;;;1.16;100.00;100178.59;5031091;28;20745;-77
2022/03/07 06:00:03;;;;;;;12.47;7.77;;;;;;;1.39;100.00;100213.88;5024278;28;20200;-77
2022/03/07 06:02:29;;;;;;;18.40;7.53;;;;;;;1.38;100.00;100211.25;5012404;28;20573;-77
2022/03/07 06:04:56;;;;;;;12.43;7.97;;;;;;;1.24;100.00;100215.63;5013026;28;20197;-77
2022/03/07 06:07:25;;;;;;;14.93;9.60;;;;;;;1.25;100.00;100211.41;5015141;28;20204;-79
2022/03/07 06:09:52;;;;;;;15.60;8.50;;;;;;;1.30;100.00;100195.50;5028782;28;20202;-76
2022/03/07 06:12:18;;;;;;;19.33;10.33;;;;;;;1.23;100.00;100210.41;5019300;28;20196;-76
2022/03/07 06:14:45;;;;;;;25.07;14.17;;;;;;;1.05;100.00;100140.50;5032018;28;20207;-78
2022/03/07 06:17:12;;;;;;;12.67;8.53;;;;;;;1.47;100.00;100207.50;5031913;28;20222;-76
2022/03/07 06:19:39;;;;;;;14.37;8.40;;;;;;;1.46;100.00;100215.09;5032758;28;20192;-78
2022/03/07 06:22:05;;;;;;;24.93;13.73;;;;;;;1.63;100.00;100215.97;5031942;28;20195;-78
2022/03/07 06:24:34;;;;;;;29.13;13.57;;;;;;;1.53;100.00;100217.19;5027438;28;20188;-79
2022/03/07 06:27:00;;;;;;;23.47;11.60;;;;;;;1.36;100.00;100218.81;5031707;28;20299;-78
2022/03/07 06:29:28;;;;;;;26.57;14.70;;;;;;;1.35;100.00;100183.88;5031512;28;20196;-80
2022/03/07 06:31:55;;;;;;;20.20;5.93;;;;;;;1.27;100.00;100207.25;5030946;28;20200;-77
2022/03/07 06:34:22;;;;;;;25.63;12.83;;;;;;;1.86;100.00;100218.03;5031365;28;20196;-77
2022/03/07 06:36:50;;;;;;;18.20;9.93;;;;;;;1.74;100.00;100196.97;5031024;28;20207;-79
2022/03/07 06:39:17;;;;;;;16.27;9.30;;;;;;;1.78;100.00;100221.88;5012079;28;20201;-78
2022/03/07 06:41:45;;;;;;;19.90;11.37;;;;;;;1.10;100.00;100103.34;5011794;28;20208;-77
2022/03/07 06:44:12;;;;;;;19.33;10.83;;;;;;;1.93;100.00;100199.63;5022695;28;20698;-77
2022/03/07 06:46:39;;;;;;;14.27;8.57;;;;;;;1.78;100.00;100163.09;5032474;28;20228;-79
2022/03/07 06:49:06;;;;;;;12.47;8.97;;;;;;;1.52;100.00;100174.53;5032835;28;20686;-80
2022/03/07 06:51:33;;;;;;;5.00;4.47;;;;;;;1.24;100.00;100210.53;5031463;28;20188;-78
2022/03/07 06:54:00;;;;;;;12.63;7.60;;;;;;;1.60;100.00;100229.47;5031818;28;20196;-80
2022/03/07 06:56:27;;;;;;;17.53;9.33;;;;;;;1.57;100.00;100202.88;5033139;28;20192;-78
2022/03/07 06:58:55;;;;;;;17.00;9.43;;;;;;;1.73;100.00;100242.09;5030400;28;20200;-79
2022/03/07 07:01:22;;;;;;;19.00;11.13;;;;;;;1.81;100.00;100183.69;5031241;28;20200;-78
2022/03/07 07:03:48;;;;;;;15.83;10.80;;;;;;;2.14;100.00;100228.00;5030937;28;20208;-78
2022/03/07 07:06:15;;;;;;;17.83;9.73;;;;;;;2.17;100.00;100231.59;5034203;28;20641;-79
2022/03/07 07:08:42;;;;;;;14.17;8.37;;;;;;;2.04;100.00;100233.41;5035008;28;20196;-80
2022/03/07 07:11:09;;;;;;;19.30;10.87;;;;;;;2.18;100.00;100228.22;5035433;28;20196;-79
2022/03/07 07:13:36;;;;;;;19.13;9.53;;;;;;;2.14;100.00;100204.97;5033969;28;20196;-78
2022/03/07 07:16:04;;;;;;;17.37;10.53;;;;;;;2.47;100.00;100240.78;5032020;28;20196;-79
2022/03/07 07:18:31;;;;;;;11.00;6.80;;;;;;;2.45;100.00;100234.72;5034261;28;20204;-78
2022/03/07 07:20:58;;;;;;;14.33;8.77;;;;;;;2.44;100.00;100243.19;5034051;28;20201;-80
2022/03/07 07:23:25;;;;;;;16.50;8.67;;;;;;;2.59;100.00;100247.28;5033957;28;20622;-80
2022/03/07 07:25:52;;;;;;;9.00;6.73;;;;;;;2.42;100.00;100243.91;5034190;28;20227;-78
2022/03/07 07:28:18;;;;;;;14.83;8.90;;;;;;;2.33;100.00;100249.44;5034866;28;20683;-77
2022/03/07 07:30:46;;;;;;;15.67;8.63;;;;;;;1.81;100.00;100168.38;5034664;28;20203;-78
2022/03/07 07:33:15;;;;;;;23.27;10.37;;;;;;;2.02;100.00;100176.22;5033560;28;20192;-77
2022/03/07 07:35:41;;;;;;;11.73;7.90;;;;;;;2.80;100.00;100244.09;5034557;28;20200;-76
2022/03/07 07:38:08;;;;;;;14.93;9.07;;;;;;;2.73;100.00;100241.16;5033902;28;20201;-79
2022/03/07 07:40:36;;;;;;;17.67;10.57;;;;;;;2.44;100.00;100161.31;5034686;28;20561;-79
2022/03/07 07:43:03;;;;;;;15.07;9.07;;;;;;;2.58;100.00;100243.84;5034429;28;20678;-78
2022/03/07 07:45:30;;;;;;;17.93;12.00;;;;;;;2.62;100.00;100232.97;5034203;28;20606;-81
2022/03/07 07:47:58;;;;;;;15.70;9.30;;;;;;;2.49;100.00;100205.91;5033122;28;20220;-81
2022/03/07 07:50:26;;;;;;;17.47;10.87;;;;;;;2.89;100.00;100229.16;5034625;28;20196;-80
2022/03/07 07:52:54;;;;;;;13.50;8.20;;;;;;;2.49;100.00;100194.81;5034491;28;20196;-79
2022/03/07 07:55:21;;;;;;;16.87;9.27;;;;;;;2.87;100.00;100232.47;5034264;28;20701;-80
2022/03/07 07:57:48;;;;;;;19.90;9.40;;;;;;;2.87;100.00;100200.06;5034689;28;20197;-81
2022/03/07 08:00:19;;;;;;;12.93;8.87;;;;;;;3.15;100.00;100248.31;5034449;28;20209;-79
2022/03/07 08:02:47;;;;;;;18.40;9.93;;;;;;;2.50;100.00;100125.78;5034047;28;20231;-80
2022/03/07 08:05:14;;;;;;;23.40;12.60;;;;;;;3.43;100.00;100240.22;5034138;28;20192;-82
2022/03/07 08:07:43;;;;;;;18.37;10.07;;;;;;;2.68;100.00;100191.41;5033092;28;20224;-79
2022/03/07 08:10:11;;;;;;;8.73;6.37;;;;;;;2.70;100.00;100239.34;5034530;28;20197;-79
2022/03/07 08:12:37;;;;;;;14.23;8.93;;;;;;;2.86;100.00;100171.81;5033782;28;20279;-79
2022/03/07 08:15:09;;;;;;;13.30;7.53;;;;;;;3.21;100.00;100242.63;5033898;28;20196;-80
2022/03/07 08:17:36;;;;;;;11.80;8.07;;;;;;;2.74;100.00;100109.81;5033254;28;20206;-77
2022/03/07 08:20:05;;;;;;;12.70;8.90;;;;;;;3.40;100.00;100245.22;5034010;28;20192;-77
2022/03/07 08:22:32;;;;;;;11.50;6.80;;;;;;;3.04;100.00;100249.50;5033727;28;20593;-78
2022/03/07 08:25:00;;;;;;;11.67;7.20;;;;;;;2.84;100.00;100215.28;5033721;28;20200;-79
2022/03/07 08:27:27;;;;;;;10.57;7.87;;;;;;;3.33;100.00;100248.28;5033498;28;20220;-78
2022/03/07 08:29:53;;;;;;;14.83;9.33;;;;;;;3.00;100.00;100211.75;5033769;28;20203;-80
2022/03/07 08:32:20;;;;;;;15.33;8.90;;;;;;;3.14;100.00;100182.53;5033903;28;20196;-78
2022/03/07 08:34:47;;;;;;;15.87;8.43;;;;;;;3.69;100.00;100246.53;5033696;28;20199;-78
2022/03/07 08:37:14;;;;;;;14.17;8.80;;;;;;;3.41;100.00;100258.09;5033211;28;20192;-78
2022/03/07 08:39:41;;;;;;;16.93;9.63;;;;;;;3.55;100.00;100247.59;5033503;28;20192;-78
2022/03/07 08:42:09;;;;;;;17.20;10.43;;;;;;;3.75;100.00;100249.34;5033456;28;20653;-79
2022/03/07 08:44:36;;;;;;;13.90;8.90;;;;;;;3.79;100.00;100249.56;5033255;28;20196;-78
2022/03/07 08:47:03;;;;;;;18.57;11.20;;;;;;;3.63;100.00;100243.69;5032963;28;20634;-78
2022/03/07 08:49:29;;;;;;;16.77;9.70;;;;;;;3.66;100.00;100246.41;5033095;28;20192;-79
2022/03/07 08:51:56;;;;;;;12.53;8.20;;;;;;;3.30;100.00;100253.28;5033352;28;20200;-77
2022/03/07 08:54:23;;;;;;;12.33;7.63;;;;;;;3.26;100.00;100253.94;5033505;28;20193;-76
2022/03/07 08:56:50;;;;;;;12.67;8.00;;;;;;;3.33;100.00;100249.19;5032345;28;20193;-78
2022/03/07 08:59:18;;;;;;;18.07;9.13;;;;;;;3.05;100.00;100194.03;5032713;28;20192;-79
2022/03/07 09:01:45;;;;;;;13.97;6.93;;;;;;;3.05;100.00;100238.47;5032847;28;20196;-77
2022/03/07 09:04:12;;;;;;;20.17;10.43;;;;;;;2.87;100.00;100222.22;5033295;28;20612;-78
2022/03/07 09:06:38;;;;;;;7.77;6.43;;;;;;;3.29;100.00;100244.72;5031999;28;20222;-78
2022/03/07 09:09:05;;;;;;;14.40;7.90;;;;;;;3.33;100.00;100243.19;5032963;28;20203;-78
2022/03/07 09:11:32;;;;;;;20.93;10.40;;;;;;;3.45;100.00;100206.19;5033088;28;20207;-77
2022/03/07 09:13:59;;;;;;;12.97;8.83;;;;;;;3.81;100.00;100244.53;5032733;28;20197;-77
2022/03/07 09:16:27;;;;;;;21.87;11.63;;;;;;;3.82;100.00;100205.22;5033814;28;20192;-78
2022/03/07 09:18:54;;;;;;;17.57;11.17;;;;;;;4.23;100.00;100246.38;5032693;28;20200;-78
2022/03/07 09:21:21;;;;;;;16.37;8.87;;;;;;;4.27;100.00;100199.50;5033024;28;20204;-76
2022/03/07 09:23:48;;;;;;;13.43;9.10;;;;;;;4.72;100.00;100264.69;5032366;28;20191;-77
2022/03/07 09:26:15;;;;;;;14.33;9.07;;;;;;;4.18;100.00;100253.00;5032628;28;20224;-77
2022/03/07 09:28:42;;;;;;;11.23;7.87;;;;;;;3.91;100.00;100272.31;5032895;28;20207;-77
2022/03/07 09:31:09;;;;;;;12.00;7.83;;;;;;;3.70;100.00;100218.41;5032824;28;20270;-76
2022/03/07 09:33:38;;;;;;;15.17;9.57;;;;;;;4.46;100.00;100262.72;5032590;28;20196;-76
2022/03/07 09:36:05;;;;;;;14.23;8.97;;;;;;;4.66;100.00;100276.41;5033271;28;20677;-78
2022/03/07 09:38:35;;;;;;;15.60;10.57;;;;;;;5.05;100.00;100266.88;5031579;28;20667;-78
2022/03/07 09:41:02;;;;;;;13.97;9.37;;;;;;;5.14;100.00;100269.78;5032401;28;20206;-76
2022/03/07 09:43:28;;;;;;;16.07;10.20;;;;;;;5.12;100.00;100272.31;5032542;28;20591;-77
2022/03/07 09:45:56;;;;;;;12.40;8.07;;;;;;;5.13;100.00;100239.78;5032197;28;20223;-77
2022/03/07 09:48:24;;;;;;;13.23;8.87;;;;;;;5.42;100.00;100278.63;5032216;28;20228;-76
2022/03/07 09:50:53;;;;;;;10.80;8.73;;;;;;;5.68;100.00;100263.31;5032310;28;20196;-78
2022/03/07 09:53:20;;;;;;;14.27;9.67;;;;;;;5.43;100.00;100261.50;5032481;28;20579;-76
2022/03/07 09:55:47;;;;;;;14.33;9.27;;;;;;;5.70;100.00;100275.44;5018675;28;20192;-78
2022/03/07 09:58:15;;;;;;;19.13;9.73;;;;;;;5.74;100.00;100277.28;5012730;28;20201;-77
2022/03/07 10:00:43;;;;;;;13.43;8.23;;;;;;;4.78;100.00;100276.94;5012125;28;20203;-77
2022/03/07 10:03:11;;;;;;;13.43;8.73;;;;;;;4.66;100.00;100273.84;5012261;28;20204;-77
2022/03/07 10:05:41;;;;;;;15.97;9.00;;;;;;;4.88;100.00;100277.34;5012370;28;20295;-76
2022/03/07 10:08:10;;;;;;;13.77;9.57;;;;;;;4.81;100.00;100269.34;5011288;28;20232;-78
2022/03/07 10:10:40;;;;;;;15.37;10.03;;;;;;;4.97;100.00;100271.69;5012462;28;20633;-77
2022/03/07 10:13:09;;;;;;;15.83;10.10;;;;;;;4.95;100.00;100278.47;5012144;28;20197;-76
2022/03/07 10:15:37;;;;;;;35.20;16.60;;;;;;;5.25;100.00;100279.69;5012287;28;20203;-78
2022/03/07 10:18:04;;;;;;;21.93;11.33;;;;;;;5.06;100.00;100279.78;5012074;28;20208;-77
2022/03/07 10:20:32;;;;;;;20.27;11.27;;;;;;;5.27;100.00;100272.03;5012560;28;20193;-78
2022/03/07 10:23:00;;;;;;;14.23;10.10;;;;;;;5.11;100.00;100260.28;5012459;28;20235;-77
2022/03/07 10:25:30;;;;;;;17.83;11.70;;;;;;;5.11;100.00;100244.84;5012440;28;20203;-78
2022/03/07 10:27:59;;;;;;;19.53;11.33;;;;;;;4.65;100.00;100270.38;5011988;28;20234;-77
2022/03/07 10:30:28;;;;;;;18.23;10.47;;;;;;;3.69;100.00;100187.56;5012534;28;20617;-74
2022/03/07 10:32:57;;;;;;;20.53;11.80;;;;;;;3.78;100.00;100203.38;5012031;28;20216;-76
2022/03/07 10:35:29;;;;;;;22.20;11.80;;;;;;;4.16;100.00;100223.84;5012388;28;20208;-75
2022/03/07 10:37:57;;;;;;;20.10;12.80;;;;;;;4.39;100.00;100250.44;5010851;28;20205;-75
2022/03/07 10:40:25;;;;;;;18.27;11.30;;;;;;;4.38;100.00;100254.72;5013948;28;20196;-77
2022/03/07 10:42:54;;;;;;;19.53;11.83;;;;;;;4.47;100.00;100252.53;5015791;28;20193;-76
2022/03/07 10:45:23;;;;;;;19.00;11.77;;;;;;;4.59;100.00;100256.44;5015679;28;20580;-75
2022/03/07 10:47:54;;;;;;;18.47;11.53;;;;;;;4.59;100.00;100251.28;5015370;28;20232;-76
2022/03/07 10:50:23;;;;;;;23.53;14.00;;;;;;;4.64;100.00;100244.66;5015947;28;20188;-76
2022/03/07 10:52:53;;;;;;;21.13;13.07;;;;;;;4.69;100.00;100248.28;5015596;28;20679;-75
2022/03/07 10:55:25;;;;;;;23.20;13.23;;;;;;;4.63;100.00;100227.50;5015901;28;20197;-76
2022/03/07 10:57:54;;;;;;;26.70;14.43;;;;;;;4.37;100.00;100209.34;5015511;28;20686;-75
2022/03/07 11:00:22;;;;;;;25.50;13.23;;;;;;;4.32;100.00;100215.94;5015687;28;20204;-75
2022/03/07 11:02:49;;;;;;;21.33;11.83;;;;;;;4.20;100.00;100210.31;5015253;28;20754;-75
2022/03/07 11:05:18;;;;;;;20.13;12.47;;;;;;;4.63;100.00;100223.25;5015706;28;20229;-78
2022/03/07 11:07:46;;;;;;;26.43;13.10;;;;;;;4.46;100.00;100216.53;5014693;28;20247;-76
2022/03/07 11:10:15;;;;;;;23.00;13.03;;;;;;;4.23;100.00;100165.94;5015636;28;20228;-78
2022/03/07 11:12:42;;;;;;;34.63;16.60;;;;;;;4.31;100.00;100232.19;5014031;28;20193;-77
2022/03/07 11:15:14;;;;;;;27.90;13.40;;;;;;;4.58;100.00;100229.00;5014898;28;20193;-77
2022/03/07 11:17:42;;;;;;;29.83;15.60;;;;;;;4.91;100.00;100231.25;5015207;28;20201;-78